Time;durP1;ratioP1;P1;durP2;ratioP2;P2;SDS_P1;SDS_P2;PMS_P1;PMS_P2;Temp;Humidity;BMP_temperature;BMP_pressure;BME280_temperature;BME280_humidity;BME280_pressure;Samples;Min_cycle;Max_cycle;Signal;HPM_P1;HPM_P2
2022/12/17 13:06:10;;;;;;;89.27;41.00;;;;;;;-1.79;100.00;102517.66;5013208;28;20547;-58
2022/12/17 13:08:35;;;;;;;96.00;41.63;;;;;;;-1.76;100.00;102517.56;5017524;28;20156;-57
2022/12/17 13:11:26;;;;;;;91.97;38.97;;;;;;;-1.74;100.00;102516.69;5020461;28;20556;-58
2022/12/17 13:13:56;;;;;;;88.40;39.97;;;;;;;-1.84;100.00;102509.13;5016885;28;20022;-57
2022/12/17 13:16:32;;;;;;;85.70;39.47;;;;;;;-1.86;100.00;102513.53;5024681;28;20111;-58
2022/12/17 13:19:18;;;;;;;86.70;39.17;;;;;;;-1.82;100.00;102517.72;5024529;28;20030;-57
2022/12/17 13:21:43;;;;;;;87.27;39.23;;;;;;;-1.79;100.00;102517.66;5011648;28;20038;-57
2022/12/17 13:24:22;;;;;;;83.60;38.37;;;;;;;-1.77;100.00;102521.06;5017460;28;20375;-58
2022/12/17 13:26:47;;;;;;;83.53;38.60;;;;;;;-1.74;100.00;102517.53;5022289;28;20068;-57
2022/12/17 13:29:23;;;;;;;88.47;38.40;;;;;;;-1.77;100.00;102504.63;5026951;28;20120;-57
2022/12/17 13:32:07;;;;;;;83.93;38.83;;;;;;;-1.73;100.00;102510.59;5015943;28;20026;-60
2022/12/17 13:34:57;;;;;;;88.37;38.43;;;;;;;-1.73;100.00;102515.81;5017302;28;20044;-58
2022/12/17 13:37:47;;;;;;;89.47;40.87;;;;;;;-1.80;100.00;102518.56;5020696;28;20036;-58
2022/12/17 13:40:47;;;;;;;99.20;44.37;;;;;;;-1.83;100.00;102510.81;5021681;28;20037;-58
2022/12/17 13:43:18;;;;;;;90.63;39.73;;;;;;;-1.94;100.00;102503.31;5023373;28;20501;-57
2022/12/17 13:45:43;;;;;;;92.87;40.17;;;;;;;-1.93;100.00;102509.38;5021876;28;20457;-58
2022/12/17 13:48:19;;;;;;;90.50;40.10;;;;;;;-1.94;100.00;102507.63;5022773;28;20212;-58
2022/12/17 13:50:53;;;;;;;89.33;41.13;;;;;;;-1.93;100.00;102506.78;5017151;28;20042;-58
2022/12/17 13:53:19;;;;;;;95.83;42.43;;;;;;;-1.94;100.00;102512.84;5020515;28;20021;-58
2022/12/17 13:55:53;;;;;;;99.03;42.57;;;;;;;-1.97;100.00;102508.56;5017447;28;20022;-58
2022/12/17 13:58:27;;;;;;;95.20;40.83;;;;;;;-1.95;100.00;102512.00;5029235;28;20029;-58
2022/12/17 14:01:18;;;;;;;93.57;42.10;;;;;;;-1.91;100.00;102517.97;5016462;28;20045;-58
2022/12/17 14:03:52;;;;;;;93.57;38.67;;;;;;;-1.98;100.00;102517.25;5025472;28;20099;-57
2022/12/17 14:06:19;;;;;;;95.20;41.30;;;;;;;-2.09;100.00;102506.28;5018735;28;20022;-57
2022/12/17 14:08:46;;;;;;;94.57;40.73;;;;;;;-2.05;100.00;102513.13;5024521;28;20025;-58
2022/12/17 14:13:55;;;;;;;90.87;39.17;;;;;;;-1.97;100.00;102515.53;5017289;28;20051;-57
2022/12/17 14:16:21;;;;;;;94.33;39.77;;;;;;;-1.98;100.00;102519.03;5023732;28;20033;-57
2022/12/17 14:18:52;;;;;;;87.43;38.20;;;;;;;-2.05;100.00;102521.78;5026059;28;20034;-58
2022/12/17 14:21:18;;;;;;;88.97;37.67;;;;;;;-2.08;100.00;102521.00;5025081;28;20038;-57
2022/12/17 14:23:46;;;;;;;86.63;38.23;;;;;;;-2.19;100.00;102523.84;5028206;28;20037;-57
2022/12/17 14:26:12;;;;;;;86.93;36.97;;;;;;;-2.22;100.00;102536.91;5024672;28;20032;-57
2022/12/17 14:28:49;;;;;;;85.63;37.53;;;;;;;-2.26;100.00;102532.69;5023194;28;20037;-58
2022/12/17 14:31:27;;;;;;;89.77;36.87;;;;;;;-2.39;100.00;102532.97;5023379;28;20025;-58
2022/12/17 14:33:59;;;;;;;82.77;36.77;;;;;;;-2.38;100.00;102529.47;5025416;28;20033;-57
2022/12/17 14:36:26;;;;;;;;;;;;;;;-2.24;100.00;102536.94;5021606;28;20108;-60
2022/12/17 14:38:55;;;;;;;87.80;36.47;;;;;;;-2.32;100.00;102534.53;5023429;28;20036;-58
2022/12/17 14:44:06;;;;;;;91.17;37.77;;;;;;;-2.37;100.00;102530.34;5026001;28;20508;-58
2022/12/17 14:46:33;;;;;;;84.47;35.27;;;;;;;-2.38;100.00;102539.84;5025462;28;20021;-58
2022/12/17 14:49:01;;;;;;;87.80;36.63;;;;;;;-2.40;100.00;102548.56;5023972;28;20030;-58
2022/12/17 14:51:37;;;;;;;82.20;34.93;;;;;;;-2.40;100.00;102552.03;5024635;28;20028;-58
2022/12/17 14:54:24;;;;;;;86.43;35.27;;;;;;;-2.42;100.00;102543.41;5021979;28;20041;-56
2022/12/17 14:56:50;;;;;;;83.10;34.90;;;;;;;-2.47;100.00;102542.69;5022058;28;20026;-57
2022/12/17 14:59:35;;;;;;;81.90;33.67;;;;;;;-2.48;100.00;102544.41;5023242;28;20455;-57
2022/12/17 15:02:09;;;;;;;82.13;33.13;;;;;;;-2.52;100.00;102557.50;5026456;28;20033;-58
2022/12/17 15:04:37;;;;;;;81.40;34.80;;;;;;;-2.49;100.00;102560.03;5027638;28;20099;-57
2022/12/17 15:07:03;;;;;;;82.83;34.80;;;;;;;-2.48;100.00;102559.13;5026480;28;20528;-57
2022/12/17 15:09:29;;;;;;;84.40;35.17;;;;;;;-2.50;100.00;102558.31;5023399;28;20489;-58
2022/12/17 15:11:54;;;;;;;87.97;36.23;;;;;;;-2.49;100.00;102557.44;5021119;28;20026;-57
2022/12/17 15:14:19;;;;;;;90.27;35.80;;;;;;;-2.47;100.00;102566.06;5025583;28;20544;-59
2022/12/17 15:16:45;;;;;;;90.27;37.27;;;;;;;-2.45;100.00;102565.16;5022113;28;20119;-57
2022/12/17 15:19:10;;;;;;;92.77;36.43;;;;;;;-2.44;100.00;102565.97;5025115;28;20033;-58
2022/12/17 15:21:36;;;;;;;87.83;35.07;;;;;;;-2.44;100.00;102572.03;5022851;28;20672;-58
2022/12/17 15:24:01;;;;;;;88.50;36.00;;;;;;;-2.42;100.00;102579.78;5026652;28;20038;-58
2022/12/17 15:26:26;;;;;;;92.07;36.70;;;;;;;-2.42;100.00;102590.19;5024673;28;20038;-57
2022/12/17 15:28:52;;;;;;;87.33;35.77;;;;;;;-2.40;100.00;102587.56;5025577;28;20047;-58
2022/12/17 15:31:17;;;;;;;87.00;35.97;;;;;;;-2.40;100.00;102585.81;5023956;28;20351;-57
2022/12/17 15:33:43;;;;;;;91.70;36.70;;;;;;;-2.42;100.00;102592.78;5021317;28;20109;-58
2022/12/17 15:36:10;;;;;;;95.60;38.23;;;;;;;-2.43;100.00;102588.47;5024066;28;20493;-57
2022/12/17 15:38:35;;;;;;;99.57;39.83;;;;;;;-2.45;100.00;102585.94;5020308;28;20033;-60
2022/12/17 15:43:09;;;;;;;99.17;41.40;;;;;;;-2.49;100.00;102593.81;5027855;28;20087;-58
2022/12/17 15:43:51;;;;;;;94.60;39.60;;;;;;;-2.46;100.00;102593.75;5020453;28;20073;-58
2022/12/17 15:46:16;;;;;;;98.97;38.83;;;;;;;-2.45;100.00;102590.25;5020192;28;20033;-60
2022/12/17 15:48:42;;;;;;;101.73;40.63;;;;;;;-2.45;100.00;102596.31;5023381;28;20083;-58
2022/12/17 15:51:08;;;;;;;96.00;39.80;;;;;;;-2.45;100.00;102592.84;5021370;28;20043;-57
2022/12/17 15:53:33;;;;;;;91.00;38.47;;;;;;;-2.45;100.00;102588.53;5026699;28;20057;-58
2022/12/17 15:56:02;;;;;;;95.80;37.97;;;;;;;-2.46;100.00;102593.75;5024490;28;20026;-58
2022/12/17 15:58:28;;;;;;;102.40;39.30;;;;;;;-2.46;100.00;102609.34;5023787;28;20354;-57
2022/12/17 16:00:53;;;;;;;102.60;39.83;;;;;;;-2.45;100.00;102600.66;5022945;28;20055;-58
2022/12/17 16:03:19;;;;;;;98.27;39.10;;;;;;;-2.44;100.00;102607.56;5021196;28;20104;-58
2022/12/17 16:05:44;;;;;;;107.07;41.73;;;;;;;-2.47;100.00;102612.84;5024226;28;20036;-57
2022/12/17 16:08:09;;;;;;;124.67;49.57;;;;;;;-2.54;100.00;102616.41;5021418;28;20462;-57
2022/12/17 16:10:35;;;;;;;110.80;42.80;;;;;;;-2.57;100.00;102613.00;5020814;28;20412;-58
2022/12/17 16:13:01;;;;;;;111.30;42.90;;;;;;;-2.62;100.00;102609.66;5023406;28;20493;-57
2022/12/17 16:15:26;;;;;;;104.27;42.07;;;;;;;-2.59;100.00;102603.53;5027454;28;20029;-58
2022/12/17 16:17:51;;;;;;;103.40;40.30;;;;;;;-2.60;100.00;102612.22;5021208;28;20053;-58
2022/12/17 16:20:17;;;;;;;99.20;40.67;;;;;;;-2.63;100.00;102605.34;5022758;28;20064;-58
2022/12/17 16:22:43;;;;;;;91.07;37.60;;;;;;;-2.67;100.00;102611.47;5020109;28;20465;-58
2022/12/17 16:25:08;;;;;;;95.17;38.03;;;;;;;-2.67;100.00;102611.47;5020936;28;20060;-57
2022/12/17 16:27:34;;;;;;;97.33;37.37;;;;;;;-2.70;100.00;102607.19;5025835;28;20030;-57
2022/12/17 16:29:59;;;;;;;95.10;36.77;;;;;;;-2.69;100.00;102608.06;5021048;28;20030;-57
2022/12/17 16:32:24;;;;;;;104.80;40.67;;;;;;;-2.77;100.00;102608.22;5021861;28;20025;-57
2022/12/17 16:34:50;;;;;;;101.73;38.40;;;;;;;-2.73;100.00;102611.59;5020342;28;20030;-57
2022/12/17 16:37:15;;;;;;;108.30;41.57;;;;;;;-2.73;100.00;102617.66;5022767;28;20022;-58
2022/12/17 16:39:40;;;;;;;109.20;41.10;;;;;;;-2.69;100.00;102602.88;5021751;28;20561;-57
2022/12/17 16:42:06;;;;;;;104.90;40.30;;;;;;;-2.69;100.00;102608.06;5022288;28;20072;-58
2022/12/17 16:44:31;;;;;;;111.03;40.40;;;;;;;-2.68;100.00;102604.59;5022293;28;20037;-57
2022/12/17 16:46:57;;;;;;;105.33;40.33;;;;;;;-2.67;100.00;102611.47;5021493;28;20084;-57
2022/12/17 16:49:22;;;;;;;100.10;39.00;;;;;;;-2.67;100.00;102610.66;5020763;28;20461;-57
2022/12/17 16:51:52;;;;;;;110.47;42.60;;;;;;;-2.71;100.00;102615.03;5023860;28;20033;-59
2022/12/17 16:54:20;;;;;;;111.47;41.47;;;;;;;-2.71;100.00;102615.03;5025802;28;20056;-57
2022/12/17 16:56:46;;;;;;;104.53;39.93;;;;;;;-2.73;100.00;102622.00;5018660;28;20030;-58
2022/12/17 16:59:13;;;;;;;103.13;39.10;;;;;;;-2.75;100.00;102628.97;5021013;28;20491;-57
2022/12/17 17:01:40;;;;;;;101.97;39.67;;;;;;;-2.82;100.00;102617.84;5019239;28;20026;-57
2022/12/17 17:04:07;;;;;;;106.37;40.63;;;;;;;-2.85;100.00;102612.72;5020066;28;20368;-61
2022/12/17 17:06:43;;;;;;;108.50;40.60;;;;;;;-2.83;100.00;102613.53;5024677;28;20037;-60
2022/12/17 17:09:10;;;;;;;96.70;37.30;;;;;;;-2.88;100.00;102616.22;5020007;28;20022;-57
2022/12/17 17:11:35;;;;;;;96.17;37.50;;;;;;;-2.94;100.00;102615.47;5022222;28;20025;-57
2022/12/17 17:14:02;;;;;;;98.80;37.47;;;;;;;-2.96;100.00;102618.13;5022620;28;20051;-57
2022/12/17 17:16:29;;;;;;;100.03;38.77;;;;;;;-3.01;100.00;102627.75;5024459;28;20038;-57
2022/12/17 17:18:54;;;;;;;96.53;36.70;;;;;;;-3.04;100.00;102622.59;5022340;28;20061;-56
2022/12/17 17:21:23;;;;;;;92.00;37.53;;;;;;;-3.06;100.00;102634.75;5022838;28;20065;-59
2022/12/17 17:23:54;;;;;;;99.60;37.13;;;;;;;-3.17;100.00;102638.38;5022602;28;20501;-57
2022/12/17 17:26:20;;;;;;;101.00;37.67;;;;;;;-3.23;100.00;102633.31;5020809;28;20063;-59
2022/12/17 17:28:45;;;;;;;96.10;36.53;;;;;;;-3.26;100.00;102642.00;5014477;28;20053;-56
2022/12/17 17:31:12;;;;;;;99.67;37.43;;;;;;;-3.38;100.00;102640.47;5016266;28;20104;-57
2022/12/17 17:33:41;;;;;;;96.50;37.47;;;;;;;-3.40;100.00;102637.03;5026273;28;20064;-57
2022/12/17 17:36:13;;;;;;;102.23;38.03;;;;;;;-3.42;100.00;102632.75;5028221;28;20121;-58
2022/12/17 17:38:40;;;;;;;104.00;38.50;;;;;;;-3.42;100.00;102646.59;5024703;28;20040;-57
2022/12/17 17:41:08;;;;;;;116.30;43.13;;;;;;;-3.43;100.00;102647.47;5025513;28;20485;-56
2022/12/17 17:43:33;;;;;;;116.27;43.23;;;;;;;-3.42;100.00;102643.13;5014877;28;20506;-57
2022/12/17 17:46:12;;;;;;;110.47;39.90;;;;;;;-3.41;100.00;102645.72;5014846;28;20029;-56
2022/12/17 17:48:38;;;;;;;104.57;38.07;;;;;;;-3.40;100.00;102637.03;5029943;28;20849;-57
2022/12/17 17:51:07;;;;;;;104.57;39.63;;;;;;;-3.44;100.00;102640.59;5033721;28;20041;-57
2022/12/17 17:53:32;;;;;;;108.50;39.93;;;;;;;-3.39;100.00;102643.94;5030036;28;20033;-56
2022/12/17 17:56:06;;;;;;;106.07;40.00;;;;;;;-3.36;100.00;102647.38;5028637;28;20030;-56
2022/12/17 17:58:32;;;;;;;104.80;38.23;;;;;;;-3.39;100.00;102643.09;5030274;28;20052;-57
2022/12/17 18:00:58;;;;;;;96.70;37.50;;;;;;;-3.39;100.00;102637.91;5020896;28;20030;-57
2022/12/17 18:03:24;;;;;;;98.17;38.27;;;;;;;-3.43;100.00;102644.88;5015619;28;20025;-57
2022/12/17 18:05:49;;;;;;;102.97;38.07;;;;;;;-3.43;100.00;102647.47;5027195;28;20034;-56
2022/12/17 18:08:14;;;;;;;108.90;39.07;;;;;;;-3.43;100.00;102644.88;5015954;28;20049;-58
2022/12/17 18:10:39;;;;;;;103.23;38.83;;;;;;;-3.44;100.00;102645.78;5034655;28;20029;-57
2022/12/17 18:15:48;;;;;;;101.73;37.87;;;;;;;-3.43;100.00;102647.47;5027182;28;20114;-57
2022/12/17 18:18:14;;;;;;;103.73;38.23;;;;;;;-3.42;100.00;102649.19;5021428;28;20425;-57
2022/12/17 18:20:39;;;;;;;102.37;37.50;;;;;;;-3.40;100.00;102647.41;5025275;28;20021;-57
2022/12/17 18:23:05;;;;;;;95.80;36.87;;;;;;;-3.38;100.00;102650.00;5023500;28;20052;-56
2022/12/17 18:25:30;;;;;;;111.13;39.93;;;;;;;-3.34;100.00;102650.78;5033699;28;20040;-58
2022/12/17 18:27:55;;;;;;;117.90;42.00;;;;;;;-3.33;100.00;102647.31;5016700;28;20026;-56
2022/12/17 18:30:20;;;;;;;109.40;41.17;;;;;;;-3.35;100.00;102649.09;5023512;28;20450;-56
2022/12/17 18:32:49;;;;;;;110.90;41.57;;;;;;;-3.39;100.00;102643.94;5031287;28;20043;-57
2022/12/17 18:35:14;;;;;;;115.60;41.93;;;;;;;-3.42;100.00;102644.00;5025378;28;20029;-57
2022/12/17 18:37:40;;;;;;;118.07;40.17;;;;;;;-3.41;100.00;102640.53;5026953;28;20110;-57
2022/12/17 18:40:06;;;;;;;117.90;41.37;;;;;;;-3.39;100.00;102643.94;5020321;28;20034;-57
2022/12/17 18:45:16;;;;;;;114.07;39.93;;;;;;;-3.37;100.00;102651.69;5026922;28;20801;-58
2022/12/17 18:47:43;;;;;;;105.93;39.33;;;;;;;-3.38;100.00;102642.22;5031109;28;20033;-57
2022/12/17 18:50:09;;;;;;;103.87;38.13;;;;;;;-3.45;100.00;102638.00;5029750;28;20068;-57
2022/12/17 18:52:34;;;;;;;103.47;38.63;;;;;;;-3.47;100.00;102645.81;5027165;28;20034;-58
2022/12/17 18:55:00;;;;;;;97.47;38.37;;;;;;;-3.52;100.00;102647.63;5015186;28;20836;-57
2022/12/17 18:57:25;;;;;;;97.53;37.40;;;;;;;-3.59;100.00;102651.19;5019633;28;20041;-56
2022/12/17 18:59:53;;;;;;;109.47;38.60;;;;;;;-3.62;100.00;102651.25;5023529;28;20047;-56
2022/12/17 19:02:18;;;;;;;105.27;38.23;;;;;;;-3.62;100.00;102651.25;5021414;28;20424;-57
2022/12/17 19:04:44;;;;;;;97.50;37.53;;;;;;;-3.67;100.00;102665.16;5019377;28;20044;-56
2022/12/17 19:07:09;;;;;;;102.23;38.37;;;;;;;-3.62;100.00;102653.84;5015202;28;20052;-57
2022/12/17 19:09:35;;;;;;;97.90;38.20;;;;;;;-3.61;100.00;102658.16;5021884;28;20045;-57
2022/12/17 19:12:02;;;;;;;103.87;39.23;;;;;;;-3.61;100.00;102658.16;5018616;28;20026;-57
2022/12/17 19:14:28;;;;;;;99.00;38.33;;;;;;;-3.61;100.00;102668.53;5016936;28;20030;-57
2022/12/17 19:16:54;;;;;;;99.93;37.77;;;;;;;-3.61;100.00;102666.78;5027653;28;20445;-57
2022/12/17 19:19:21;;;;;;;94.27;37.00;;;;;;;-3.60;100.00;102671.06;5023964;28;20034;-57
2022/12/17 19:21:47;;;;;;;93.67;35.40;;;;;;;-3.62;100.00;102672.00;5012166;28;20042;-57
2022/12/17 19:24:15;;;;;;;97.40;37.97;;;;;;;-3.63;100.00;102678.06;5018494;28;20057;-56
2022/12/17 19:26:41;;;;;;;93.87;37.13;;;;;;;-3.69;100.00;102686.78;5013437;28;20034;-56
2022/12/17 19:29:07;;;;;;;96.53;38.13;;;;;;;-3.71;100.00;102681.63;5023865;28;20031;-57
2022/12/17 19:31:33;;;;;;;91.63;37.07;;;;;;;-3.71;100.00;102681.63;5028292;28;20041;-56
2022/12/17 19:34:01;;;;;;;90.70;37.87;;;;;;;-3.74;100.00;102689.47;5015938;28;20034;-57
2022/12/17 19:36:29;;;;;;;88.00;36.83;;;;;;;-3.74;100.00;102689.47;5026330;28;20462;-57
2022/12/17 19:38:57;;;;;;;91.40;36.67;;;;;;;-3.82;100.00;102686.97;5014907;28;20115;-56
2022/12/17 19:41:24;;;;;;;85.00;35.03;;;;;;;-3.79;100.00;102691.25;5021614;28;20115;-56
2022/12/17 19:43:57;;;;;;;92.80;37.67;;;;;;;-3.82;100.00;102680.91;4994035;28;1047439;-57
2022/12/17 19:46:23;;;;;;;98.53;38.23;;;;;;;-3.84;100.00;102688.72;5022787;28;20050;-55
2022/12/17 19:48:49;;;;;;;94.90;37.97;;;;;;;-3.85;100.00;102675.78;5018825;28;20037;-56
2022/12/17 19:51:18;;;;;;;90.73;36.83;;;;;;;-3.81;100.00;102678.31;5019853;28;20034;-57
2022/12/17 19:53:45;;;;;;;98.67;39.17;;;;;;;-3.76;100.00;102680.00;5030223;28;20029;-60
2022/12/17 19:56:18;;;;;;;97.57;37.10;;;;;;;-3.72;100.00;102677.31;5014775;28;20029;-57
2022/12/17 19:58:46;;;;;;;106.50;42.83;;;;;;;-3.72;100.00;102687.69;5025056;28;20038;-57
2022/12/17 20:01:13;;;;;;;103.57;40.87;;;;;;;-3.70;100.00;102685.94;5016624;28;20041;-57
2022/12/17 20:03:40;;;;;;;96.27;37.93;;;;;;;-3.76;100.00;102680.84;5017756;28;20075;-57
2022/12/17 20:06:06;;;;;;;101.43;39.00;;;;;;;-3.75;100.00;102679.09;5016024;28;20486;-57
2022/12/17 20:08:33;;;;;;;106.73;42.27;;;;;;;-3.75;100.00;102687.72;5013405;28;20413;-57
2022/12/17 20:11:31;;;;;;;109.00;39.77;;;;;;;-3.70;100.00;102696.28;5022561;28;20458;-56
2022/12/17 20:13:52;;;;;;;103.20;38.37;;;;;;;-3.74;100.00;102699.84;5023642;28;20568;-57
2022/12/17 20:16:18;;;;;;;93.40;38.60;;;;;;;-3.78;100.00;102703.34;5029481;28;20164;-56
2022/12/17 20:18:43;;;;;;;91.03;36.93;;;;;;;-3.75;100.00;102711.06;5027586;28;20580;-57
2022/12/17 20:21:08;;;;;;;96.27;37.57;;;;;;;-3.72;100.00;102718.81;5024091;28;20417;-54
2022/12/17 20:23:33;;;;;;;94.13;38.20;;;;;;;-3.69;100.00;102718.75;5013233;28;20053;-55
2022/12/17 20:26:04;;;;;;;93.13;36.73;;;;;;;-3.66;100.00;102718.72;5016149;28;20040;-56
2022/12/17 20:28:29;;;;;;;86.83;35.87;;;;;;;-3.63;100.00;102719.53;5013804;28;20088;-56
2022/12/17 20:30:54;;;;;;;82.93;33.67;;;;;;;-3.72;100.00;102708.44;5021327;28;20033;-59
2022/12/17 20:33:20;;;;;;;89.90;37.30;;;;;;;-3.76;100.00;102705.91;5015486;28;20096;-57
2022/12/17 20:35:45;;;;;;;86.97;36.17;;;;;;;-3.78;100.00;102698.16;5016703;28;20038;-56
2022/12/17 20:38:10;;;;;;;89.07;36.20;;;;;;;-3.78;100.00;102700.75;5020919;28;20465;-58
2022/12/17 20:40:38;;;;;;;87.40;36.73;;;;;;;-3.79;100.00;102699.03;5025474;28;20073;-56
2022/12/17 20:43:03;;;;;;;89.73;36.53;;;;;;;-3.86;100.00;102695.66;5024785;28;20041;-57
2022/12/17 20:45:29;;;;;;;82.17;34.57;;;;;;;-3.90;100.00;102693.16;5020246;28;20036;-57
2022/12/17 20:47:54;;;;;;;91.07;36.47;;;;;;;-3.90;100.00;102687.97;5030933;28;20057;-57
2022/12/17 20:50:19;;;;;;;80.53;35.20;;;;;;;-3.89;100.00;102689.66;5019365;28;20080;-57
2022/12/17 20:52:44;;;;;;;85.17;36.40;;;;;;;-3.90;100.00;102698.31;5012098;28;20424;-57
2022/12/17 20:55:10;;;;;;;83.23;36.20;;;;;;;-3.85;100.00;102688.75;5024800;28;20508;-57
2022/12/17 20:57:35;;;;;;;82.80;35.53;;;;;;;-3.86;100.00;102689.63;5025547;28;20029;-56
2022/12/17 21:00:00;;;;;;;83.80;35.33;;;;;;;-3.84;100.00;102690.47;5030596;28;20029;-56
2022/12/17 21:02:26;;;;;;;87.80;36.13;;;;;;;-3.86;100.00;102689.63;5017446;28;20548;-57
2022/12/17 21:04:51;;;;;;;85.53;36.20;;;;;;;-3.82;100.00;102696.47;5012908;28;20466;-56
2022/12/17 21:07:16;;;;;;;85.20;36.00;;;;;;;-3.81;100.00;102698.19;5018154;28;20058;-57
2022/12/17 21:09:41;;;;;;;78.83;35.00;;;;;;;-3.84;100.00;102699.09;5013307;28;20501;-57
2022/12/17 21:12:08;;;;;;;77.40;33.70;;;;;;;-3.82;100.00;102699.06;5011731;28;20030;-56
2022/12/17 21:14:33;;;;;;;76.97;35.53;;;;;;;-3.86;100.00;102692.22;5015916;28;20073;-57
2022/12/17 21:16:59;;;;;;;85.73;35.73;;;;;;;-3.84;100.00;102693.06;5024134;28;20492;-59
2022/12/17 21:19:26;;;;;;;79.90;34.30;;;;;;;-3.84;100.00;102693.91;5020703;28;20547;-57
2022/12/17 21:21:51;;;;;;;84.30;36.37;;;;;;;-3.82;100.00;102696.47;5019835;28;20072;-58
2022/12/17 21:24:17;;;;;;;84.10;35.40;;;;;;;-3.80;100.00;102705.94;5026900;28;20061;-57
2022/12/17 21:26:43;;;;;;;82.43;34.73;;;;;;;-3.77;100.00;102707.63;5027418;28;20120;-57
2022/12/17 21:29:10;;;;;;;77.27;35.37;;;;;;;-3.76;100.00;102695.56;5028374;28;20120;-57
2022/12/17 21:31:39;;;;;;;82.20;34.33;;;;;;;-3.79;100.00;102706.81;5017348;28;20112;-56
2022/12/17 21:34:07;;;;;;;78.80;35.47;;;;;;;-3.80;100.00;102713.72;5019861;28;20105;-57
2022/12/17 21:36:33;;;;;;;70.83;32.57;;;;;;;-3.80;100.00;102711.13;5028632;28;20079;-56
2022/12/17 21:38:59;;;;;;;74.50;33.20;;;;;;;-3.81;100.00;102712.00;5025921;28;20036;-56
2022/12/17 21:41:27;;;;;;;81.20;35.40;;;;;;;-3.80;100.00;102707.69;5025279;28;20080;-56
2022/12/17 21:43:53;;;;;;;75.07;31.97;;;;;;;-3.80;100.00;102713.72;5027772;28;20049;-55
2022/12/17 21:46:19;;;;;;;77.83;34.30;;;;;;;-3.79;100.00;102712.84;5026161;28;20124;-57
2022/12/17 21:48:44;;;;;;;74.00;33.13;;;;;;;-3.81;100.00;102718.94;5023512;28;20552;-56
2022/12/17 21:51:12;;;;;;;78.27;33.13;;;;;;;-3.90;100.00;102717.31;5028032;28;20440;-56
2022/12/17 21:53:41;;;;;;;72.90;32.50;;;;;;;-3.94;100.00;102713.06;5025599;28;20056;-56
2022/12/17 21:56:15;;;;;;;75.47;33.37;;;;;;;-3.95;100.00;102714.78;5022848;28;20111;-56
2022/12/17 21:58:41;;;;;;;78.83;34.27;;;;;;;-3.97;100.00;102724.34;5022569;28;20053;-57
2022/12/17 22:01:15;;;;;;;72.53;33.10;;;;;;;-3.96;100.00;102723.44;5022718;28;20037;-57
2022/12/17 22:03:41;;;;;;;70.73;31.53;;;;;;;-3.97;100.00;102713.09;5021474;28;20057;-57
2022/12/17 22:06:12;;;;;;;71.03;32.70;;;;;;;-3.90;100.00;102726.84;5020962;28;20502;-57
2022/12/17 22:08:38;;;;;;;71.33;31.83;;;;;;;-3.96;100.00;102726.03;5019304;28;20113;-57
2022/12/17 22:11:15;;;;;;;66.20;31.23;;;;;;;-3.98;100.00;102733.00;5020253;28;20033;-56
2022/12/17 22:16:26;;;;;;;69.13;31.77;;;;;;;-4.02;100.00;102736.50;5025963;28;20477;-57
2022/12/17 22:18:52;;;;;;;70.57;32.77;;;;;;;-4.07;100.00;102744.34;5021014;28;20132;-56
2022/12/17 22:21:18;;;;;;;73.47;31.83;;;;;;;-4.16;100.00;102743.59;5029044;28;20037;-57
2022/12/17 22:23:47;;;;;;;70.47;32.40;;;;;;;-4.19;100.00;102755.69;5020772;28;20032;-57
2022/12/17 22:26:17;;;;;;;76.70;34.13;;;;;;;-4.23;100.00;102755.75;5020452;28;20109;-56
2022/12/17 22:28:47;;;;;;;66.77;32.27;;;;;;;-4.28;100.00;102761.00;5021771;28;20049;-57
2022/12/17 22:33:57;;;;;;;68.17;31.97;;;;;;;-4.26;100.00;102761.81;5022496;28;20564;-58
2022/12/17 22:36:24;;;;;;;64.53;32.60;;;;;;;-4.29;100.00;102754.09;5021500;28;20029;-56
2022/12/17 22:38:49;;;;;;;65.03;30.77;;;;;;;-4.28;100.00;102744.56;5030572;28;20033;-55
2022/12/17 22:43:28;;;;;;;63.47;30.37;;;;;;;-4.30;100.00;102742.00;5029574;28;20026;-56
2022/12/17 22:44:01;;;;;;;64.30;30.03;;;;;;;-4.32;100.00;102743.75;5029679;28;20069;-57
2022/12/17 22:46:28;;;;;;;57.87;30.43;;;;;;;-4.34;100.00;102740.34;5026741;28;20390;-57
2022/12/17 22:48:55;;;;;;;65.30;30.80;;;;;;;-4.37;100.00;102740.34;5025794;28;20022;-57
2022/12/17 22:51:21;;;;;;;62.37;30.37;;;;;;;-4.37;100.00;102733.47;5019815;28;22009;-57
2022/12/17 22:53:46;;;;;;;60.33;29.47;;;;;;;-4.39;99.79;102726.56;5022465;28;20030;-58
2022/12/17 22:56:11;;;;;;;64.03;31.33;;;;;;;-4.38;99.48;102731.75;5028835;28;20029;-57
2022/12/17 22:58:37;;;;;;;60.93;30.77;;;;;;;-4.41;99.40;102736.06;5027680;28;20394;-57
2022/12/17 23:01:04;;;;;;;60.90;30.60;;;;;;;-4.40;98.99;102740.41;5022040;28;20378;-56
2022/12/17 23:03:29;;;;;;;63.93;31.23;;;;;;;-4.48;98.84;102749.09;5018160;28;20037;-57
2022/12/17 23:06:05;;;;;;;62.60;30.43;;;;;;;-4.52;98.72;102751.75;5030265;28;20429;-56
2022/12/17 23:08:30;;;;;;;61.10;32.73;;;;;;;-4.64;98.58;102752.72;5021233;28;20045;-55
2022/12/17 23:10:56;;;;;;;60.17;30.30;;;;;;;-4.64;98.62;102753.56;5013924;28;20030;-57
2022/12/17 23:13:21;;;;;;;66.00;32.00;;;;;;;-4.66;98.56;102733.75;5014360;28;20623;-55
2022/12/17 23:15:46;;;;;;;61.63;31.17;;;;;;;-4.68;98.67;102722.56;5027524;28;20096;-57
2022/12/17 23:18:11;;;;;;;63.13;32.73;;;;;;;-4.72;98.50;102712.22;5028341;28;20052;-58
2022/12/17 23:20:37;;;;;;;61.63;29.93;;;;;;;-4.73;98.24;102712.25;5025101;28;20420;-57
2022/12/17 23:23:02;;;;;;;66.13;31.73;;;;;;;-4.77;98.18;102711.44;5022318;28;20033;-56
2022/12/17 23:25:28;;;;;;;63.67;31.23;;;;;;;-4.84;98.28;102709.75;5025467;28;20071;-57
2022/12/17 23:27:54;;;;;;;62.70;32.43;;;;;;;-4.83;98.29;102711.50;5022099;28;20053;-57
2022/12/17 23:30:19;;;;;;;64.67;30.47;;;;;;;-4.84;98.12;102714.94;5017508;28;20068;-56
2022/12/17 23:32:45;;;;;;;63.23;31.17;;;;;;;-4.89;98.34;102725.34;5025129;28;20474;-57
2022/12/17 23:35:11;;;;;;;67.73;31.17;;;;;;;-4.95;97.37;102724.56;5023331;28;20030;-55
2022/12/17 23:37:37;;;;;;;68.00;32.60;;;;;;;-5.04;97.27;102721.16;5018494;28;20026;-56
2022/12/17 23:40:03;;;;;;;66.70;32.27;;;;;;;-5.05;97.43;102722.03;5025695;28;20517;-57
2022/12/17 23:42:29;;;;;;;61.70;30.60;;;;;;;-5.08;97.72;102722.03;5024843;28;20068;-57
2022/12/17 23:44:54;;;;;;;65.57;31.23;;;;;;;-5.07;97.21;102726.38;5029339;28;20037;-58
2022/12/17 23:47:19;;;;;;;62.20;30.60;;;;;;;-5.09;96.91;102730.69;5017928;28;20565;-57
2022/12/17 23:49:44;;;;;;;67.50;31.50;;;;;;;-5.07;97.45;102728.09;5028572;28;20030;-56
2022/12/17 23:52:10;;;;;;;68.60;31.50;;;;;;;-5.07;97.58;102728.97;5022728;28;20037;-55
2022/12/17 23:54:35;;;;;;;62.73;31.03;;;;;;;-5.07;97.67;102731.53;5020611;28;20029;-57
2022/12/17 23:57:00;;;;;;;61.97;31.10;;;;;;;-5.09;97.21;102735.84;5022653;28;20036;-57
2022/12/17 23:59:26;;;;;;;69.00;33.03;;;;;;;-5.19;96.69;102739.41;5025830;28;20082;-57
